Time;durP1;ratioP1;P1;durP2;ratioP2;P2;SDS_P1;SDS_P2;PMS_P1;PMS_P2;Temp;Humidity;BMP_temperature;BMP_pressure;BME280_temperature;BME280_humidity;BME280_pressure;Samples;Min_cycle;Max_cycle;Signal;HPM_P1;HPM_P2
2021/12/02 00:01:04;;;;;;;8.80;1.13;;;4.30;99.90;;;;;;5072016;28;20077;-82
2021/12/02 00:03:30;;;;;;;6.32;0.90;;;4.20;99.90;;;;;;5085603;28;20036;-82
2021/12/02 00:05:55;;;;;;;6.60;1.00;;;4.20;99.90;;;;;;5075144;28;20036;-82
2021/12/02 00:08:21;;;;;;;5.97;0.80;;;4.20;99.90;;;;;;5098403;28;20404;-82
2021/12/02 00:10:46;;;;;;;8.70;0.75;;;4.20;99.90;;;;;;5094285;28;20540;-82
2021/12/02 00:13:12;;;;;;;5.95;1.10;;;4.20;99.90;;;;;;5096506;28;20463;-82
2021/12/02 00:15:51;;;;;;;8.82;1.10;;;4.20;99.90;;;;;;5075785;28;20611;-82
2021/12/02 00:21:03;;;;;;;7.65;1.48;;;4.10;99.90;;;;;;5084945;28;20476;-82
2021/12/02 00:23:33;;;;;;;9.15;1.25;;;4.10;99.90;;;;;;5088007;28;20031;-83
2021/12/02 00:26:01;;;;;;;10.43;1.00;;;4.10;99.90;;;;;;5097481;28;20551;-83
2021/12/02 00:28:29;;;;;;;8.93;1.38;;;4.10;99.90;;;;;;5097283;28;20068;-82
2021/12/02 00:30:57;;;;;;;5.25;0.93;;;4.10;99.90;;;;;;5097183;28;20040;-82
2021/12/02 00:33:25;;;;;;;7.15;1.00;;;4.00;99.90;;;;;;5090380;28;20478;-82
2021/12/02 00:35:52;;;;;;;4.53;0.90;;;4.00;99.90;;;;;;5077198;28;20120;-82
2021/12/02 00:38:23;;;;;;;13.45;1.10;;;4.00;99.90;;;;;;5102737;28;20651;-82
2021/12/02 00:40:51;;;;;;;4.20;0.90;;;4.00;99.90;;;;;;5098287;28;20104;-82
2021/12/02 00:43:17;;;;;;;7.50;0.95;;;3.90;99.90;;;;;;5076229;28;20054;-83
2021/12/02 00:45:43;;;;;;;7.93;1.52;;;3.90;99.90;;;;;;5095227;28;20123;-82
2021/12/02 00:48:10;;;;;;;7.97;1.08;;;3.90;99.90;;;;;;5095125;28;20070;-82
2021/12/02 00:50:49;;;;;;;7.95;0.90;;;3.90;99.90;;;;;;5079147;28;20089;-82
2021/12/02 00:53:19;;;;;;;6.18;1.88;;;3.90;99.90;;;;;;5088324;28;20114;-83
2021/12/02 00:55:46;;;;;;;7.88;1.00;;;3.90;99.90;;;;;;5096793;28;20769;-82
2021/12/02 00:58:19;;;;;;;6.93;1.25;;;3.90;99.90;;;;;;5098421;28;20491;-82
2021/12/02 01:00:48;;;;;;;3.88;0.85;;;3.80;99.90;;;;;;5098453;28;20034;-82
2021/12/02 01:03:14;;;;;;;9.88;1.15;;;3.80;99.90;;;;;;5098519;28;20079;-82
2021/12/02 01:05:41;;;;;;;7.38;1.25;;;3.80;99.90;;;;;;5097142;28;20126;-82
2021/12/02 01:08:07;;;;;;;8.05;1.00;;;3.80;99.90;;;;;;5086386;28;20374;-82
2021/12/02 01:10:33;;;;;;;8.82;1.08;;;3.80;99.90;;;;;;5078084;28;20039;-82
2021/12/02 01:12:59;;;;;;;6.78;1.70;;;3.80;99.90;;;;;;5081398;28;20061;-82
2021/12/02 01:15:25;;;;;;;7.20;1.63;;;3.80;99.90;;;;;;5091088;28;20497;-82
2021/12/02 01:17:51;;;;;;;10.45;1.00;;;3.80;99.90;;;;;;5077382;28;20392;-82
2021/12/02 01:20:18;;;;;;;10.20;1.30;;;3.90;99.90;;;;;;5110678;27;20031;-83
2021/12/02 01:22:46;;;;;;;11.48;1.10;;;3.80;99.90;;;;;;5076481;28;20035;-82
2021/12/02 01:25:12;;;;;;;6.45;1.00;;;3.80;99.90;;;;;;5099936;28;20035;-82
2021/12/02 01:27:40;;;;;;;7.85;0.95;;;3.90;99.90;;;;;;5080378;28;20035;-82
2021/12/02 01:30:06;;;;;;;12.38;1.48;;;3.90;99.90;;;;;;5098415;28;20077;-82
2021/12/02 01:32:38;;;;;;;5.72;0.90;;;3.80;99.90;;;;;;5080648;28;20067;-82
2021/12/02 01:35:04;;;;;;;8.50;1.63;;;3.90;99.90;;;;;;5090968;28;20052;-82
2021/12/02 01:37:30;;;;;;;6.70;0.80;;;3.80;99.90;;;;;;5082608;28;20138;-82
2021/12/02 01:39:58;;;;;;;5.38;0.90;;;3.80;99.90;;;;;;5098858;28;20034;-82
2021/12/02 01:42:26;;;;;;;3.10;0.52;;;3.80;99.90;;;;;;5076942;28;20392;-82
2021/12/02 01:44:54;;;;;;;7.72;1.00;;;3.90;99.90;;;;;;5085282;28;20042;-82
2021/12/02 01:47:23;;;;;;;9.73;1.42;;;3.90;99.90;;;;;;5093207;28;20051;-82
2021/12/02 01:49:53;;;;;;;5.28;0.70;;;3.90;99.90;;;;;;5075779;28;20122;-83
2021/12/02 01:52:24;;;;;;;6.47;0.80;;;3.90;99.90;;;;;;5092167;28;20385;-82
2021/12/02 01:54:55;;;;;;;7.45;1.30;;;3.90;99.90;;;;;;5090927;28;20522;-82
2021/12/02 01:57:34;;;;;;;8.30;1.52;;;3.90;99.90;;;;;;5096699;28;20044;-82
2021/12/02 02:00:08;;;;;;;7.13;0.88;;;4.00;99.90;;;;;;5091966;28;20036;-82
2021/12/02 02:02:37;;;;;;;6.90;0.98;;;4.00;99.90;;;;;;5072972;28;20067;-82
2021/12/02 02:05:07;;;;;;;7.43;0.98;;;4.00;99.90;;;;;;5071184;28;20038;-82
2021/12/02 02:07:37;;;;;;;8.98;1.13;;;4.00;99.90;;;;;;5063186;28;20072;-82
2021/12/02 02:10:03;;;;;;;8.25;1.00;;;4.00;99.90;;;;;;5084146;28;20123;-82
2021/12/02 02:12:29;;;;;;;6.38;1.40;;;4.00;99.90;;;;;;5093274;28;20040;-82
2021/12/02 02:14:56;;;;;;;3.40;0.73;;;4.00;99.90;;;;;;5092138;28;20148;-82
2021/12/02 02:17:29;;;;;;;8.10;1.20;;;3.90;99.90;;;;;;5077542;28;20070;-82
2021/12/02 02:19:57;;;;;;;3.53;0.73;;;3.90;99.90;;;;;;5096125;28;20050;-83
2021/12/02 02:22:22;;;;;;;4.20;0.70;;;3.80;99.90;;;;;;5091560;28;20036;-82
2021/12/02 02:24:50;;;;;;;6.13;0.95;;;3.80;99.90;;;;;;5092160;28;20031;-82
2021/12/02 02:27:15;;;;;;;8.00;0.90;;;3.80;99.90;;;;;;5090595;28;20101;-82
2021/12/02 02:29:41;;;;;;;4.45;0.70;;;3.80;99.90;;;;;;5089433;28;20028;-82
2021/12/02 02:32:07;;;;;;;6.78;0.85;;;3.70;99.90;;;;;;5076491;28;20129;-82
2021/12/02 02:34:33;;;;;;;4.57;0.80;;;3.70;99.90;;;;;;5069789;28;20052;-82
2021/12/02 02:37:02;;;;;;;9.77;1.17;;;3.60;99.90;;;;;;5080737;28;20055;-82
2021/12/02 02:39:30;;;;;;;6.20;0.65;;;3.60;99.90;;;;;;5086900;28;20036;-82
2021/12/02 02:41:58;;;;;;;5.22;0.88;;;3.50;99.90;;;;;;5074326;28;20400;-82
2021/12/02 02:44:25;;;;;;;4.75;0.75;;;3.50;99.90;;;;;;5090497;28;20472;-82
2021/12/02 02:46:51;;;;;;;2.35;0.70;;;3.40;99.90;;;;;;5089809;28;20554;-82
2021/12/02 02:49:17;;;;;;;4.60;0.60;;;3.50;99.90;;;;;;5087469;28;20044;-82
2021/12/02 02:51:43;;;;;;;4.13;0.60;;;3.40;99.90;;;;;;5092539;28;20066;-82
2021/12/02 02:54:12;;;;;;;4.85;0.50;;;3.50;99.90;;;;;;5073549;28;20040;-82
2021/12/02 02:57:05;;;;;;;4.35;0.73;;;3.40;99.90;;;;;;5075445;28;20040;-82
2021/12/02 03:02:33;;;;;;;7.60;0.90;;;3.50;99.90;;;;;;5080235;28;20127;-82
2021/12/02 03:07:59;;;;;;;6.60;1.80;;;3.50;99.90;;;;;;5090638;28;20059;-82
2021/12/02 03:10:58;;;;;;;3.25;0.60;;;3.40;99.90;;;;;;5086282;28;20496;-82
2021/12/02 03:13:21;;;;;;;2.83;0.40;;;3.40;99.90;;;;;;5091239;28;20047;-82
2021/12/02 03:18:33;;;;;;;5.72;0.60;;;3.40;99.90;;;;;;5108005;27;20120;-82
2021/12/02 03:20:59;;;;;;;1.08;0.32;;;3.30;99.90;;;;;;5078847;28;20039;-82
2021/12/02 03:23:25;;;;;;;7.18;0.63;;;3.30;99.90;;;;;;5091859;28;20032;-82
2021/12/02 03:25:51;;;;;;;2.83;0.60;;;3.30;99.90;;;;;;5089662;28;20043;-82
2021/12/02 03:28:17;;;;;;;3.58;0.80;;;3.20;99.90;;;;;;5086601;28;20044;-82
2021/12/02 03:30:43;;;;;;;4.85;0.95;;;3.20;99.90;;;;;;5091382;28;20048;-82
2021/12/02 03:33:09;;;;;;;2.25;0.40;;;3.20;99.90;;;;;;5092423;28;20093;-82
2021/12/02 03:35:35;;;;;;;2.55;0.40;;;3.10;99.90;;;;;;5094894;28;20044;-82
2021/12/02 03:38:00;;;;;;;1.98;0.30;;;3.10;99.90;;;;;;5077766;28;20032;-82
2021/12/02 03:40:26;;;;;;;4.60;0.50;;;3.10;99.90;;;;;;5091001;28;20412;-82
2021/12/02 03:42:53;;;;;;;2.58;0.68;;;3.10;99.90;;;;;;5089903;28;20046;-82
2021/12/02 03:45:23;;;;;;;2.72;0.43;;;3.10;99.90;;;;;;5091482;28;20032;-82
2021/12/02 03:47:49;;;;;;;3.80;1.15;;;3.10;99.90;;;;;;5105940;27;20031;-82
2021/12/02 03:50:14;;;;;;;6.30;0.80;;;3.10;99.90;;;;;;5073952;28;20832;-82
2021/12/02 03:52:40;;;;;;;2.28;0.50;;;3.20;99.90;;;;;;5097756;28;20040;-82
2021/12/02 03:55:06;;;;;;;2.55;0.50;;;3.20;99.90;;;;;;5095011;28;20066;-82
2021/12/02 03:57:32;;;;;;;3.47;0.60;;;3.30;99.90;;;;;;5077144;28;20122;-82
2021/12/02 03:59:59;;;;;;;2.33;0.40;;;3.30;99.90;;;;;;5085889;28;20119;-82
2021/12/02 04:02:25;;;;;;;3.95;0.60;;;3.30;99.90;;;;;;5089851;28;20507;-82
2021/12/02 04:04:51;;;;;;;3.55;0.55;;;3.30;99.90;;;;;;5071347;28;20039;-82
2021/12/02 04:07:20;;;;;;;4.78;0.80;;;3.30;99.90;;;;;;5092812;28;20104;-82
2021/12/02 04:09:47;;;;;;;3.50;0.60;;;3.30;99.90;;;;;;5092064;28;20555;-82
2021/12/02 04:17:41;;;;;;;1.55;0.47;;;3.20;99.90;;;;;;5091558;28;20070;-82
2021/12/02 04:20:16;;;;;;;4.57;0.68;;;3.10;99.90;;;;;;5094641;28;20059;-82
2021/12/02 04:22:43;;;;;;;5.82;0.82;;;3.10;99.90;;;;;;5088533;28;20028;-82
2021/12/02 04:25:10;;;;;;;2.92;0.57;;;3.10;99.90;;;;;;5077797;28;20093;-82
2021/12/02 04:27:36;;;;;;;3.38;0.50;;;3.10;99.90;;;;;;5075686;28;20492;-82
2021/12/02 04:30:08;;;;;;;4.15;1.13;;;3.10;99.90;;;;;;5089395;28;20048;-82
2021/12/02 04:32:34;;;;;;;5.03;0.90;;;3.10;99.90;;;;;;5074090;28;20086;-82
2021/12/02 04:34:59;;;;;;;3.20;0.50;;;3.00;99.90;;;;;;5076823;28;20086;-82
2021/12/02 04:37:25;;;;;;;4.25;0.70;;;3.00;99.90;;;;;;5078594;28;20083;-82
2021/12/02 04:39:51;;;;;;;3.63;0.57;;;3.00;99.90;;;;;;5075436;28;20041;-82
2021/12/02 04:42:17;;;;;;;2.00;0.60;;;3.00;99.90;;;;;;5071960;28;20032;-82
2021/12/02 04:44:42;;;;;;;3.05;0.63;;;2.90;99.90;;;;;;5087426;28;20028;-82
2021/12/02 04:47:09;;;;;;;4.13;0.50;;;2.90;99.90;;;;;;5086796;28;20042;-82
2021/12/02 04:49:35;;;;;;;3.03;0.63;;;2.90;99.90;;;;;;5089949;28;20040;-82
2021/12/02 04:52:01;;;;;;;2.47;0.60;;;2.90;99.90;;;;;;5080111;28;20039;-82
2021/12/02 04:54:28;;;;;;;3.15;0.70;;;2.80;99.90;;;;;;5080034;28;20096;-82
2021/12/02 04:56:54;;;;;;;4.47;0.70;;;2.80;99.90;;;;;;5079732;28;20529;-82
2021/12/02 04:59:19;;;;;;;5.20;0.70;;;2.80;99.90;;;;;;5091865;28;20643;-82
2021/12/02 05:01:45;;;;;;;3.70;0.60;;;2.80;99.90;;;;;;5088348;28;20033;-82
2021/12/02 05:04:11;;;;;;;3.28;0.52;;;2.80;99.90;;;;;;5092866;28;20084;-82
2021/12/02 05:06:36;;;;;;;3.45;0.55;;;2.90;99.90;;;;;;5079861;28;20409;-82
2021/12/02 05:09:02;;;;;;;3.47;0.40;;;2.80;99.90;;;;;;5078202;28;20040;-82
2021/12/02 05:11:28;;;;;;;4.43;0.60;;;2.90;99.90;;;;;;5076559;28;20074;-82
2021/12/02 05:13:54;;;;;;;2.20;0.50;;;2.90;99.90;;;;;;5097191;28;20044;-82
2021/12/02 05:16:19;;;;;;;3.60;0.65;;;2.90;99.90;;;;;;5092163;28;20543;-82
2021/12/02 05:18:45;;;;;;;4.97;0.40;;;2.80;99.90;;;;;;5098842;28;20506;-82
2021/12/02 05:21:10;;;;;;;1.05;0.38;;;2.80;99.90;;;;;;5082297;28;20076;-82
2021/12/02 05:23:36;;;;;;;1.92;0.40;;;2.80;99.90;;;;;;5094606;28;20503;-82
2021/12/02 05:26:02;;;;;;;3.05;0.50;;;2.90;99.90;;;;;;5095574;28;20038;-82
2021/12/02 05:28:28;;;;;;;2.55;0.60;;;2.90;99.90;;;;;;5079880;28;20119;-82
2021/12/02 05:30:53;;;;;;;4.57;0.50;;;2.90;99.90;;;;;;5077499;28;20035;-82
2021/12/02 05:33:19;;;;;;;2.63;0.50;;;2.90;99.90;;;;;;5099527;28;20062;-82
2021/12/02 05:35:46;;;;;;;1.10;0.38;;;2.90;99.90;;;;;;5090465;28;20409;-82
2021/12/02 05:38:12;;;;;;;4.30;0.70;;;2.80;99.90;;;;;;5093503;28;20065;-82
2021/12/02 05:40:37;;;;;;;1.55;0.60;;;2.90;99.90;;;;;;5097793;28;20464;-82
2021/12/02 05:43:03;;;;;;;4.68;0.40;;;2.80;99.90;;;;;;5091468;28;20513;-82
2021/12/02 05:45:29;;;;;;;2.90;0.70;;;2.90;99.90;;;;;;5092181;28;20042;-82
2021/12/02 05:47:54;;;;;;;1.98;0.45;;;2.90;99.90;;;;;;5094258;28;20043;-82
2021/12/02 05:50:20;;;;;;;2.35;0.40;;;2.90;99.90;;;;;;5093892;28;20070;-82
2021/12/02 05:52:46;;;;;;;1.50;0.38;;;2.90;99.90;;;;;;5097505;28;20036;-82
2021/12/02 05:55:12;;;;;;;3.25;0.40;;;2.90;99.90;;;;;;5090879;28;20527;-82
2021/12/02 05:57:37;;;;;;;4.35;0.40;;;2.90;99.90;;;;;;5074471;28;20039;-82
2021/12/02 06:00:06;;;;;;;2.65;0.45;;;2.90;99.90;;;;;;5087122;28;20036;-82
2021/12/02 06:02:31;;;;;;;1.30;0.50;;;2.90;99.90;;;;;;5084074;28;20043;-82
2021/12/02 06:04:57;;;;;;;1.98;0.50;;;2.90;99.90;;;;;;5065110;28;20273;-81
2021/12/02 06:07:23;;;;;;;3.72;0.60;;;3.00;99.90;;;;;;5079053;28;20035;-82
2021/12/02 06:09:52;;;;;;;4.88;0.60;;;3.00;99.90;;;;;;5075851;28;20032;-81
2021/12/02 06:12:18;;;;;;;2.53;0.77;;;3.00;99.90;;;;;;5093813;28;20113;-82
2021/12/02 06:14:43;;;;;;;0.82;0.47;;;3.00;99.90;;;;;;5089028;28;20063;-82
2021/12/02 06:17:09;;;;;;;1.42;0.47;;;2.90;99.90;;;;;;5090994;28;20031;-82
2021/12/02 06:19:35;;;;;;;2.58;0.50;;;3.00;99.90;;;;;;5093751;28;20770;-82
2021/12/02 06:22:01;;;;;;;3.17;0.50;;;3.10;99.90;;;;;;5074982;28;20036;-82
2021/12/02 06:24:32;;;;;;;2.08;0.30;;;3.10;99.90;;;;;;5087712;28;20393;-82
2021/12/02 06:26:58;;;;;;;3.05;0.50;;;3.10;99.90;;;;;;5080844;28;20036;-82
2021/12/02 06:29:24;;;;;;;2.20;0.50;;;3.10;99.90;;;;;;5072964;28;20085;-82
2021/12/02 06:31:50;;;;;;;2.75;0.40;;;3.10;99.90;;;;;;5078695;28;20039;-82
2021/12/02 06:34:15;;;;;;;5.22;0.57;;;3.10;99.90;;;;;;5093444;28;20047;-82
2021/12/02 06:36:41;;;;;;;4.88;0.40;;;3.10;99.90;;;;;;5073819;28;20086;-82
2021/12/02 06:39:06;;;;;;;2.30;0.50;;;3.10;99.90;;;;;;5075559;28;20060;-82
2021/12/02 06:41:33;;;;;;;4.13;0.93;;;3.10;99.90;;;;;;5095779;28;20759;-82
2021/12/02 06:44:00;;;;;;;4.90;0.55;;;3.10;99.90;;;;;;5090579;28;20027;-82
2021/12/02 06:46:28;;;;;;;2.08;0.50;;;3.00;99.90;;;;;;5079341;28;20036;-82
2021/12/02 06:48:54;;;;;;;5.65;0.98;;;3.10;99.90;;;;;;5076795;28;20043;-82
2021/12/02 06:51:20;;;;;;;2.03;0.50;;;3.10;99.90;;;;;;5079056;28;20032;-82
2021/12/02 06:53:48;;;;;;;4.38;0.60;;;3.10;99.90;;;;;;5076288;28;20817;-82
2021/12/02 06:56:13;;;;;;;3.70;0.50;;;3.10;99.90;;;;;;5098022;28;20098;-82
2021/12/02 06:58:39;;;;;;;2.00;0.40;;;3.10;99.90;;;;;;5091031;28;20485;-82
2021/12/02 07:01:05;;;;;;;3.03;0.40;;;3.10;99.90;;;;;;5090607;28;20489;-82
2021/12/02 07:03:30;;;;;;;7.15;0.60;;;3.10;99.90;;;;;;5075711;28;20715;-82
2021/12/02 07:05:56;;;;;;;1.20;0.40;;;3.10;99.90;;;;;;5078822;28;20039;-82
2021/12/02 07:08:22;;;;;;;2.45;0.40;;;3.00;99.90;;;;;;5095112;28;20404;-82
2021/12/02 07:10:48;;;;;;;2.90;0.40;;;3.00;99.90;;;;;;5070073;28;20039;-82
2021/12/02 07:13:13;;;;;;;3.83;0.40;;;3.00;99.90;;;;;;5072955;28;20096;-82
2021/12/02 07:15:45;;;;;;;4.38;0.60;;;3.00;99.90;;;;;;5091358;28;20087;-82
2021/12/02 07:18:14;;;;;;;3.97;0.40;;;3.00;99.90;;;;;;5072749;28;20028;-82
2021/12/02 07:20:43;;;;;;;2.05;0.40;;;3.00;99.90;;;;;;5084102;28;20081;-82
2021/12/02 07:23:08;;;;;;;1.30;0.40;;;3.00;99.90;;;;;;5072840;28;20423;-82
2021/12/02 07:25:34;;;;;;;1.90;0.30;;;3.10;99.90;;;;;;5086090;28;20032;-82
2021/12/02 07:28:01;;;;;;;0.88;0.38;;;3.10;99.90;;;;;;5091289;28;20047;-82
2021/12/02 07:30:27;;;;;;;3.33;0.50;;;3.10;99.90;;;;;;5087670;28;20054;-82
2021/12/02 07:32:55;;;;;;;3.10;0.50;;;3.10;99.90;;;;;;5094498;28;20118;-82
2021/12/02 07:35:22;;;;;;;2.25;0.43;;;3.10;99.90;;;;;;5098381;28;20048;-82
2021/12/02 07:37:51;;;;;;;1.00;0.45;;;3.10;99.90;;;;;;5091364;28;20101;-81
2021/12/02 07:40:19;;;;;;;2.88;0.60;;;3.10;99.90;;;;;;5081685;28;20040;-81
2021/12/02 07:42:46;;;;;;;1.88;0.52;;;3.10;99.90;;;;;;5091719;28;20067;-82
2021/12/02 07:45:12;;;;;;;4.72;0.90;;;3.10;99.90;;;;;;5073929;28;20051;-81
2021/12/02 07:47:40;;;;;;;3.22;0.93;;;3.10;99.90;;;;;;5092101;28;20027;-82
2021/12/02 07:50:07;;;;;;;4.32;1.00;;;3.10;99.90;;;;;;5074645;28;20034;-81
2021/12/02 07:52:34;;;;;;;2.78;1.10;;;3.10;99.90;;;;;;5103202;28;20493;-80
2021/12/02 07:55:05;;;;;;;3.00;0.98;;;3.10;99.90;;;;;;5080678;28;20043;-81
2021/12/02 07:57:33;;;;;;;3.63;0.90;;;3.10;99.90;;;;;;5065361;28;20613;-80
2021/12/02 07:59:59;;;;;;;4.68;1.15;;;3.10;99.90;;;;;;5080941;28;20078;-81
2021/12/02 08:02:28;;;;;;;3.78;1.10;;;3.10;99.90;;;;;;5061627;28;20455;-81
2021/12/02 08:04:54;;;;;;;3.50;0.95;;;3.10;99.90;;;;;;5085456;28;20036;-81
2021/12/02 08:07:20;;;;;;;3.10;1.08;;;3.10;99.90;;;;;;5084801;28;20700;-81
2021/12/02 08:09:46;;;;;;;3.55;1.40;;;3.10;99.90;;;;;;5089698;28;20047;-81
2021/12/02 08:12:11;;;;;;;2.03;0.98;;;3.10;99.90;;;;;;5095920;28;20036;-81
2021/12/02 08:14:37;;;;;;;2.70;1.30;;;3.10;99.90;;;;;;5085588;28;20115;-81
2021/12/02 08:17:03;;;;;;;3.47;1.35;;;3.10;99.90;;;;;;5077167;28;20699;-80
2021/12/02 08:19:29;;;;;;;3.72;1.40;;;3.10;99.90;;;;;;5063566;28;20036;-80
2021/12/02 08:21:55;;;;;;;3.58;1.40;;;3.20;99.90;;;;;;5083748;28;20055;-80
2021/12/02 08:24:23;;;;;;;2.42;1.30;;;3.20;99.90;;;;;;5068095;28;20428;-80
2021/12/02 08:26:49;;;;;;;5.70;1.60;;;3.20;99.90;;;;;;5110684;28;20024;-82
2021/12/02 08:29:15;;;;;;;5.05;1.50;;;3.30;99.90;;;;;;5105854;28;20047;-82
2021/12/02 08:31:41;;;;;;;2.88;1.55;;;3.30;99.90;;;;;;5095914;28;20100;-81
2021/12/02 08:34:07;;;;;;;6.55;2.17;;;3.30;99.90;;;;;;5099213;28;20028;-82
2021/12/02 08:36:42;;;;;;;4.03;1.80;;;3.30;99.90;;;;;;5073761;28;20044;-82
2021/12/02 08:39:11;;;;;;;4.93;1.70;;;3.30;99.90;;;;;;5091579;28;20036;-81
2021/12/02 08:41:43;;;;;;;4.10;1.77;;;3.20;99.90;;;;;;5092609;28;20036;-82
2021/12/02 08:44:09;;;;;;;4.40;1.63;;;3.20;99.90;;;;;;5071991;28;20032;-82
2021/12/02 08:46:34;;;;;;;3.28;1.60;;;3.20;99.90;;;;;;5075014;28;20043;-82
2021/12/02 08:49:00;;;;;;;4.43;1.70;;;3.20;99.90;;;;;;5074975;28;20040;-82
2021/12/02 08:51:26;;;;;;;3.30;1.70;;;3.20;99.90;;;;;;5074113;28;20543;-82
2021/12/02 08:53:51;;;;;;;2.95;1.30;;;3.20;99.90;;;;;;5091620;28;20062;-82
2021/12/02 08:56:17;;;;;;;3.13;1.60;;;3.20;99.90;;;;;;5072328;28;20036;-82
2021/12/02 08:58:42;;;;;;;4.05;1.20;;;3.20;99.90;;;;;;5073876;28;20166;-82
2021/12/02 09:01:08;;;;;;;3.65;1.17;;;3.10;99.90;;;;;;5090784;28;20036;-82
2021/12/02 09:03:36;;;;;;;5.20;1.50;;;3.10;99.90;;;;;;5074554;28;20122;-82
2021/12/02 09:06:02;;;;;;;3.00;1.30;;;3.10;99.90;;;;;;5074234;28;20040;-82
2021/12/02 09:08:28;;;;;;;3.35;1.60;;;3.10;99.90;;;;;;5091653;28;20188;-82
2021/12/02 09:10:56;;;;;;;3.65;1.55;;;3.10;99.90;;;;;;5090305;28;20480;-82
2021/12/02 09:13:22;;;;;;;2.50;1.23;;;3.10;99.90;;;;;;5091899;28;20424;-82
2021/12/02 09:15:48;;;;;;;2.75;1.50;;;3.10;99.90;;;;;;5090153;28;20170;-82
2021/12/02 09:18:14;;;;;;;3.38;1.35;;;3.10;99.90;;;;;;5074105;28;20533;-82
2021/12/02 09:20:41;;;;;;;3.70;1.10;;;3.10;99.90;;;;;;5074194;28;20063;-82
2021/12/02 09:23:07;;;;;;;4.30;1.30;;;3.20;99.90;;;;;;5091197;28;20477;-82
2021/12/02 09:25:32;;;;;;;5.40;1.17;;;3.20;99.90;;;;;;5072697;28;20324;-82
2021/12/02 09:27:58;;;;;;;2.13;1.20;;;3.20;99.90;;;;;;5073383;28;20043;-82
2021/12/02 09:30:25;;;;;;;4.60;1.17;;;3.30;99.90;;;;;;5090877;28;20051;-82
2021/12/02 09:32:51;;;;;;;3.10;1.15;;;3.30;99.90;;;;;;5074476;28;20040;-81
2021/12/02 09:35:17;;;;;;;3.28;1.20;;;3.30;99.90;;;;;;5075010;28;20052;-82
2021/12/02 09:37:43;;;;;;;2.58;1.20;;;3.40;99.90;;;;;;5074005;28;20259;-84
2021/12/02 09:40:12;;;;;;;4.72;1.08;;;3.40;99.90;;;;;;5078378;28;20067;-83
2021/12/02 09:42:38;;;;;;;4.15;1.27;;;3.50;99.90;;;;;;5091833;28;20547;-82
2021/12/02 09:45:05;;;;;;;1.98;1.00;;;3.50;99.90;;;;;;5099058;28;20122;-82
2021/12/02 09:47:34;;;;;;;3.95;1.10;;;3.60;99.90;;;;;;5070448;28;20479;-81
2021/12/02 09:50:05;;;;;;;4.97;1.10;;;3.70;99.90;;;;;;5078253;28;20153;-82
2021/12/02 09:52:36;;;;;;;2.97;1.20;;;3.70;99.90;;;;;;5084970;28;20520;-81
2021/12/02 09:55:08;;;;;;;2.90;0.93;;;3.80;99.90;;;;;;5067413;28;20503;-81
2021/12/02 09:57:40;;;;;;;3.40;1.15;;;3.80;99.90;;;;;;5079761;28;20039;-82
2021/12/02 10:00:08;;;;;;;2.28;0.90;;;3.80;99.90;;;;;;5085802;28;20283;-81
2021/12/02 10:02:41;;;;;;;2.72;1.10;;;3.80;99.90;;;;;;5077898;28;20742;-81
2021/12/02 10:05:10;;;;;;;1.80;0.80;;;3.80;99.90;;;;;;5087841;28;20040;-81
2021/12/02 10:07:56;;;;;;;3.22;1.08;;;3.80;99.90;;;;;;5068633;28;20043;-82
2021/12/02 10:10:30;;;;;;;2.58;0.80;;;3.90;99.90;;;;;;5076914;28;20549;-80
2021/12/02 10:13:16;;;;;;;4.50;0.95;;;3.90;99.90;;;;;;5083511;28;20032;-80
2021/12/02 10:15:51;;;;;;;;;;;3.90;99.90;;;;;;5080786;28;20044;-83
2021/12/02 10:18:17;;;;;;;2.00;0.98;;;3.90;99.90;;;;;;5077722;28;19928;-81
2021/12/02 10:20:46;;;;;;;4.30;0.63;;;3.90;99.90;;;;;;5082144;28;20127;-81
2021/12/02 10:23:30;;;;;;;3.35;1.02;;;3.90;99.90;;;;;;5070680;28;20038;-81
2021/12/02 10:25:59;;;;;;;5.03;0.80;;;4.00;99.90;;;;;;5081933;28;20144;-81
2021/12/02 10:28:33;;;;;;;4.55;1.23;;;4.00;99.90;;;;;;5062657;28;20040;-81
2021/12/02 10:31:03;;;;;;;3.28;0.90;;;4.10;99.90;;;;;;5087527;28;20085;-81
2021/12/02 10:33:42;;;;;;;5.55;1.30;;;4.20;99.90;;;;;;5086339;28;20031;-82
2021/12/02 10:36:28;;;;;;;7.95;2.00;;;4.30;99.90;;;;;;5080397;28;20044;-82
2021/12/02 10:38:55;;;;;;;;;;;4.30;99.90;;;;;;5079568;28;20566;-82
2021/12/02 10:41:24;;;;;;;4.32;1.13;;;4.30;99.90;;;;;;5080509;28;19916;-82
2021/12/02 10:44:14;;;;;;;3.65;0.90;;;4.30;99.90;;;;;;5083999;28;20040;-81
2021/12/02 10:47:09;;;;;;;2.47;0.50;;;4.30;99.90;;;;;;5070111;28;20083;-81
2021/12/02 10:49:45;;;;;;;2.17;0.57;;;4.20;99.90;;;;;;5066558;28;20064;-81
2021/12/02 10:52:14;;;;;;;;;;;3.90;99.90;;;;;;5081053;28;20793;-81
2021/12/02 10:54:47;;;;;;;2.28;0.40;;;3.50;99.90;;;;;;5078823;28;20012;-82
2021/12/02 10:57:18;;;;;;;0.73;0.30;;;3.10;99.90;;;;;;5064652;28;20179;-85
2021/12/02 10:59:46;;;;;;;1.70;0.40;;;2.90;99.90;;;;;;5062800;28;20032;-83
2021/12/02 11:02:19;;;;;;;1.60;0.30;;;2.70;99.90;;;;;;5075423;28;20035;-82
2021/12/02 11:04:47;;;;;;;0.98;0.20;;;2.70;99.90;;;;;;5071760;28;20032;-84
2021/12/02 11:07:23;;;;;;;1.50;0.40;;;2.70;99.90;;;;;;5082263;28;20493;-81
2021/12/02 11:09:50;;;;;;;;;;;2.70;99.90;;;;;;5079519;28;20040;-81
2021/12/02 11:12:21;;;;;;;4.07;1.73;;;2.70;99.90;;;;;;5086442;28;20274;-81
2021/12/02 11:14:57;;;;;;;1.85;0.43;;;2.80;99.90;;;;;;5073604;28;20044;-81
2021/12/02 11:17:25;;;;;;;2.45;0.50;;;2.80;99.90;;;;;;5063122;28;20354;-80
2021/12/02 11:19:51;;;;;;;1.45;0.70;;;2.90;99.90;;;;;;5073004;28;20040;-80
2021/12/02 11:22:21;;;;;;;2.13;0.40;;;2.90;99.90;;;;;;5079857;28;20464;-80
2021/12/02 11:24:48;;;;;;;1.20;0.50;;;2.90;99.90;;;;;;5060560;28;20035;-80
2021/12/02 11:27:22;;;;;;;2.45;0.60;;;2.90;99.90;;;;;;5085374;28;20036;-80
2021/12/02 11:29:55;;;;;;;1.10;0.60;;;2.90;99.90;;;;;;5082055;28;20523;-80
2021/12/02 11:32:37;;;;;;;2.22;0.60;;;2.90;99.90;;;;;;5080106;28;20098;-81
2021/12/02 11:35:09;;;;;;;0.63;0.38;;;2.90;99.90;;;;;;5079740;28;20126;-80
2021/12/02 11:37:37;;;;;;;0.85;0.55;;;2.90;99.90;;;;;;5077606;28;20055;-80
2021/12/02 11:40:07;;;;;;;0.70;0.30;;;2.90;99.90;;;;;;5085444;28;20035;-80
2021/12/02 11:42:35;;;;;;;0.98;0.35;;;2.90;99.90;;;;;;5084288;28;20532;-80
2021/12/02 11:45:01;;;;;;;0.88;0.30;;;2.90;99.90;;;;;;5080273;28;20089;-79
2021/12/02 11:47:27;;;;;;;0.88;0.40;;;2.90;99.90;;;;;;5085840;28;20039;-80
2021/12/02 11:49:53;;;;;;;1.17;0.28;;;2.90;99.90;;;;;;5081403;28;20042;-80
2021/12/02 11:52:19;;;;;;;1.13;0.60;;;2.90;99.90;;;;;;5070117;28;20116;-82
2021/12/02 11:54:45;;;;;;;1.63;1.08;;;2.80;99.90;;;;;;5064196;28;20123;-80
2021/12/02 11:57:10;;;;;;;3.75;1.77;;;2.80;99.90;;;;;;5064091;28;20040;-80
2021/12/02 11:59:36;;;;;;;2.92;1.30;;;2.80;99.90;;;;;;5080634;28;20388;-80
2021/12/02 12:02:02;;;;;;;6.25;1.90;;;2.80;99.90;;;;;;5067496;28;20043;-80
2021/12/02 12:04:28;;;;;;;2.17;1.20;;;2.80;99.90;;;;;;5067766;28;20439;-80
2021/12/02 12:07:14;;;;;;;2.40;1.70;;;2.80;99.90;;;;;;5073838;28;20032;-80
2021/12/02 12:09:40;;;;;;;1.20;0.60;;;2.90;99.90;;;;;;5082034;28;20575;-80
2021/12/02 12:12:06;;;;;;;1.15;0.60;;;2.90;99.90;;;;;;5082551;28;20047;-80
2021/12/02 12:14:39;;;;;;;1.42;0.65;;;2.90;99.90;;;;;;5085745;28;20032;-79
2021/12/02 12:17:11;;;;;;;2.72;1.00;;;2.90;99.90;;;;;;5083951;28;20304;-81
2021/12/02 12:19:45;;;;;;;2.88;0.80;;;3.00;99.90;;;;;;5066456;28;20123;-80
2021/12/02 12:22:23;;;;;;;1.60;0.88;;;3.00;99.90;;;;;;5084484;28;20491;-80
2021/12/02 12:24:55;;;;;;;1.25;0.60;;;3.00;99.90;;;;;;5064368;28;20529;-80
2021/12/02 12:27:26;;;;;;;3.95;1.00;;;3.00;99.90;;;;;;5083921;28;20044;-80
2021/12/02 12:30:01;;;;;;;1.50;0.73;;;3.00;99.90;;;;;;5096389;28;20201;-80
2021/12/02 12:38:18;;;;;;;4.28;1.75;;;3.00;99.90;;;;;;5095757;28;20127;-80
2021/12/02 12:40:47;;;;;;;4.32;2.08;;;3.00;99.90;;;;;;5086154;28;20048;-80
2021/12/02 12:43:20;;;;;;;3.88;1.40;;;3.00;99.90;;;;;;5069594;28;20039;-80
2021/12/02 12:45:46;;;;;;;5.40;1.23;;;3.00;99.90;;;;;;5070026;28;20039;-80
2021/12/02 12:48:18;;;;;;;2.22;0.90;;;3.00;99.90;;;;;;5066775;28;20073;-80
2021/12/02 12:50:46;;;;;;;6.20;1.42;;;3.00;99.90;;;;;;5068232;28;20123;-80
2021/12/02 12:53:17;;;;;;;2.63;1.60;;;3.10;99.90;;;;;;5074392;28;20101;-80
2021/12/02 12:55:52;;;;;;;3.35;1.40;;;3.10;99.90;;;;;;5092268;28;20522;-81
2021/12/02 12:58:23;;;;;;;3.97;1.30;;;3.10;99.90;;;;;;5086125;28;20041;-80
2021/12/02 13:00:49;;;;;;;3.08;1.10;;;3.10;99.90;;;;;;5070224;28;20039;-80
2021/12/02 13:03:44;;;;;;;4.38;1.02;;;3.10;99.90;;;;;;5066372;28;20478;-80
2021/12/02 13:06:23;;;;;;;2.90;1.27;;;3.00;99.90;;;;;;5074986;28;20052;-80
2021/12/02 13:08:58;;;;;;;1.95;0.80;;;2.90;99.90;;;;;;5077091;28;20071;-79
2021/12/02 13:11:31;;;;;;;2.08;0.90;;;2.80;99.90;;;;;;5083294;28;20401;-79
2021/12/02 13:13:59;;;;;;;1.50;0.80;;;2.80;99.90;;;;;;5083765;28;20044;-79
2021/12/02 13:16:25;;;;;;;1.98;1.02;;;2.70;99.90;;;;;;5066265;28;20044;-80
2021/12/02 13:18:59;;;;;;;2.58;1.10;;;2.70;99.90;;;;;;5084204;28;20408;-80
2021/12/02 13:21:32;;;;;;;3.55;1.50;;;2.70;99.90;;;;;;5084696;28;20040;-79
2021/12/02 13:24:01;;;;;;;1.80;0.90;;;2.70;99.90;;;;;;5084309;28;20094;-80
2021/12/02 13:26:35;;;;;;;2.40;1.08;;;2.80;99.90;;;;;;5081099;28;20505;-79